sensor_id;sensor_type;location;lat;lon;timestamp;pressure;altitude;pressure_sealevel;temperature;humidity
9893;BME280;4985;49.092;8.542;2023-02-01T00:01:40;99987.28;;;11.87;54.61
9893;BME280;4985;49.092;8.542;2023-02-01T00:04:07;99983.81;;;11.87;54.59
9893;BME280;4985;49.092;8.542;2023-02-01T00:06:34;99993.37;;;11.88;54.59
9893;BME280;4985;49.092;8.542;2023-02-01T00:09:02;99993.37;;;11.88;54.60
9893;BME280;4985;49.092;8.542;2023-02-01T00:11:29;99993.37;;;11.88;54.59
9893;BME280;4985;49.092;8.542;2023-02-01T00:13:56;99983.97;;;11.85;54.58
9893;BME280;4985;49.092;8.542;2023-02-01T00:16:24;99987.28;;;11.87;54.60
9893;BME280;4985;49.092;8.542;2023-02-01T00:18:59;99977.53;;;11.88;54.61
9893;BME280;4985;49.092;8.542;2023-02-01T00:21:26;99987.28;;;11.87;54.60
9893;BME280;4985;49.092;8.542;2023-02-01T00:23:53;99969.78;;;11.86;54.63
9893;BME280;4985;49.092;8.542;2023-02-01T00:26:25;99951.16;;;11.88;54.61
9893;BME280;4985;49.092;8.542;2023-02-01T00:28:52;99952.81;;;11.89;54.60
9893;BME280;4985;49.092;8.542;2023-02-01T00:31:19;99944.91;;;11.89;54.60
9893;BME280;4985;49.092;8.542;2023-02-01T00:33:47;99958.09;;;11.89;54.58
9893;BME280;4985;49.092;8.542;2023-02-01T00:36:13;99967.69;;;11.90;54.58
9893;BME280;4985;49.092;8.542;2023-02-01T00:38:40;99968.63;;;11.89;54.57
9893;BME280;4985;49.092;8.542;2023-02-01T00:41:10;99965.06;;;11.90;54.57
9893;BME280;4985;49.092;8.542;2023-02-01T00:43:38;99956.31;;;11.89;54.58
9893;BME280;4985;49.092;8.542;2023-02-01T00:46:05;99961.44;;;11.91;54.59
9893;BME280;4985;49.092;8.542;2023-02-01T00:48:32;99954.50;;;11.90;54.57
9893;BME280;4985;49.092;8.542;2023-02-01T00:50:59;99966.69;;;11.91;54.57
9893;BME280;4985;49.092;8.542;2023-02-01T00:53:26;99966.69;;;11.91;54.57
9893;BME280;4985;49.092;8.542;2023-02-01T00:55:52;99965.06;;;11.90;54.55
9893;BME280;4985;49.092;8.542;2023-02-01T00:58:19;99959.78;;;11.90;54.57
9893;BME280;4985;49.092;8.542;2023-02-01T01:00:47;99951.31;;;11.86;54.57
9893;BME280;4985;49.092;8.542;2023-02-01T01:03:14;99959.78;;;11.90;54.56
9893;BME280;4985;49.092;8.542;2023-02-01T01:05:44;99958.78;;;11.91;54.57
9893;BME280;4985;49.092;8.542;2023-02-01T01:08:10;99965.06;;;11.90;54.57
9893;BME280;4985;49.092;8.542;2023-02-01T01:10:37;99970.31;;;11.90;54.57
9893;BME280;4985;49.092;8.542;2023-02-01T01:13:04;99976.44;;;11.90;54.59
9893;BME280;4985;49.092;8.542;2023-02-01T01:15:30;99986.16;;;11.90;54.58
9893;BME280;4985;49.092;8.542;2023-02-01T01:17:58;99988.09;;;11.88;54.58
9893;BME280;4985;49.092;8.542;2023-02-01T01:20:25;99980.88;;;11.90;54.58
9893;BME280;4985;49.092;8.542;2023-02-01T01:22:51;99993.09;;;11.91;54.58
9893;BME280;4985;49.092;8.542;2023-02-01T01:25:18;99986.97;;;11.90;54.58
9893;BME280;4985;49.092;8.542;2023-02-01T01:27:44;99987.81;;;11.91;54.57
9893;BME280;4985;49.092;8.542;2023-02-01T01:30:11;99981.53;;;11.92;54.57
9893;BME280;4985;49.092;8.542;2023-02-01T01:32:38;99978.09;;;11.91;54.54
9893;BME280;4985;49.092;8.542;2023-02-01T01:35:07;99977.91;;;11.93;54.54
9893;BME280;4985;49.092;8.542;2023-02-01T01:37:34;99979.56;;;11.94;54.54
9893;BME280;4985;49.092;8.542;2023-02-01T01:40:01;99982.22;;;11.94;54.51
9893;BME280;4985;49.092;8.542;2023-02-01T01:42:28;99991.94;;;11.93;54.49
9893;BME280;4985;49.092;8.542;2023-02-01T01:45:00;99976.94;;;11.94;54.50
9893;BME280;4985;49.092;8.542;2023-02-01T01:47:31;99984.84;;;11.94;54.50
9893;BME280;4985;49.092;8.542;2023-02-01T01:50:01;99976.94;;;11.94;54.48
9893;BME280;4985;49.092;8.542;2023-02-01T01:52:30;99972.66;;;11.93;54.51
9893;BME280;4985;49.092;8.542;2023-02-01T01:54:57;99984.03;;;11.93;54.53
9893;BME280;4985;49.092;8.542;2023-02-01T01:57:27;99979.56;;;11.94;54.50
9893;BME280;4985;49.092;8.542;2023-02-01T02:00:00;99971.66;;;11.94;54.51
9893;BME280;4985;49.092;8.542;2023-02-01T02:02:28;99972.50;;;11.94;54.49
9893;BME280;4985;49.092;8.542;2023-02-01T02:04:55;99966.38;;;11.94;54.51
9893;BME280;4985;49.092;8.542;2023-02-01T02:07:26;99955.81;;;11.94;54.52
9893;BME280;4985;49.092;8.542;2023-02-01T02:09:55;99949.72;;;11.93;54.53
9893;BME280;4985;49.092;8.542;2023-02-01T02:12:22;99955.00;;;11.93;54.53
9893;BME280;4985;49.092;8.542;2023-02-01T02:14:49;99949.72;;;11.93;54.53
9893;BME280;4985;49.092;8.542;2023-02-01T02:17:25;99954.19;;;11.93;54.54
9893;BME280;4985;49.092;8.542;2023-02-01T02:20:28;99944.44;;;11.93;54.52
9893;BME280;4985;49.092;8.542;2023-02-01T02:26:20;99946.94;;;11.95;54.53
9893;BME280;4985;49.092;8.542;2023-02-01T02:31:58;99936.38;;;11.95;54.53
9893;BME280;4985;49.092;8.542;2023-02-01T02:34:33;99944.28;;;11.95;54.53
9893;BME280;4985;49.092;8.542;2023-02-01T02:37:11;99940.81;;;11.94;54.54
9893;BME280;4985;49.092;8.542;2023-02-01T02:39:50;99931.09;;;11.95;54.53
9893;BME280;4985;49.092;8.542;2023-02-01T02:42:25;99930.28;;;11.94;54.54
9893;BME280;4985;49.092;8.542;2023-02-01T02:45:19;99932.09;;;11.94;54.53
9893;BME280;4985;49.092;8.542;2023-02-01T02:48:11;99925.81;;;11.95;54.54
9893;BME280;4985;49.092;8.542;2023-02-01T02:50:45;99906.53;;;11.94;54.53
9893;BME280;4985;49.092;8.542;2023-02-01T02:53:34;99898.44;;;11.96;54.52
9893;BME280;4985;49.092;8.542;2023-02-01T02:56:21;99888.88;;;11.95;54.52
9893;BME280;4985;49.092;8.542;2023-02-01T02:59:07;99886.25;;;11.95;54.52
9893;BME280;4985;49.092;8.542;2023-02-01T03:01:53;99900.41;;;11.94;54.55
9893;BME280;4985;49.092;8.542;2023-02-01T03:04:37;99913.62;;;11.94;54.57
9893;BME280;4985;49.092;8.542;2023-02-01T03:07:13;99896.97;;;11.93;54.58
9893;BME280;4985;49.092;8.542;2023-02-01T03:09:44;99890.84;;;11.93;54.59
9893;BME280;4985;49.092;8.542;2023-02-01T03:12:14;99883.75;;;11.93;54.57
9893;BME280;4985;49.092;8.542;2023-02-01T03:15:03;99880.31;;;11.93;54.58
9893;BME280;4985;49.092;8.542;2023-02-01T03:17:36;99882.94;;;11.93;54.58
9893;BME280;4985;49.092;8.542;2023-02-01T03:20:04;99881.13;;;11.93;54.58
9893;BME280;4985;49.092;8.542;2023-02-01T03:22:33;99877.50;;;11.94;54.59
9893;BME280;4985;49.092;8.542;2023-02-01T03:25:04;99875.03;;;11.93;54.58
9893;BME280;4985;49.092;8.542;2023-02-01T03:27:34;99892.50;;;11.94;54.58
9893;BME280;4985;49.092;8.542;2023-02-01T03:30:06;99892.50;;;11.94;54.57
9893;BME280;4985;49.092;8.542;2023-02-01T03:32:36;99887.22;;;11.94;54.58
9893;BME280;4985;49.092;8.542;2023-02-01T03:35:18;99889.88;;;11.94;54.59
9893;BME280;4985;49.092;8.542;2023-02-01T03:37:49;99900.41;;;11.94;54.60
9893;BME280;4985;49.092;8.542;2023-02-01T03:40:18;99892.50;;;11.94;54.58
9893;BME280;4985;49.092;8.542;2023-02-01T03:42:48;99892.50;;;11.94;54.58
9893;BME280;4985;49.092;8.542;2023-02-01T03:45:19;99896.78;;;11.95;54.58
9893;BME280;4985;49.092;8.542;2023-02-01T03:47:50;99896.78;;;11.95;54.60
9893;BME280;4985;49.092;8.542;2023-02-01T03:50:20;99879.31;;;11.94;54.59
9893;BME280;4985;49.092;8.542;2023-02-01T03:52:53;99851.13;;;11.94;54.59
9893;BME280;4985;49.092;8.542;2023-02-01T03:55:22;99848.47;;;11.94;54.58
9893;BME280;4985;49.092;8.542;2023-02-01T03:57:52;99836.44;;;11.92;54.59
9893;BME280;4985;49.092;8.542;2023-02-01T04:00:21;99830.00;;;11.94;54.58
9893;BME280;4985;49.092;8.542;2023-02-01T04:02:48;99823.91;;;11.94;54.57
9893;BME280;4985;49.092;8.542;2023-02-01T04:05:15;99822.09;;;11.94;54.57
9893;BME280;4985;49.092;8.542;2023-02-01T04:07:42;99826.37;;;11.95;54.56
9893;BME280;4985;49.092;8.542;2023-02-01T04:10:11;99841.37;;;11.95;54.55
9893;BME280;4985;49.092;8.542;2023-02-01T04:12:38;99849.31;;;11.95;54.55
9893;BME280;4985;49.092;8.542;2023-02-01T04:15:05;99845.34;;;11.91;54.55
9893;BME280;4985;49.092;8.542;2023-02-01T04:17:32;99869.41;;;11.96;54.55
9893;BME280;4985;49.092;8.542;2023-02-01T04:19:59;99891.53;;;11.95;54.58
9893;BME280;4985;49.092;8.542;2023-02-01T04:22:26;99901.41;;;11.93;54.60
9893;BME280;4985;49.092;8.542;2023-02-01T04:24:53;99904.06;;;11.93;54.61
9893;BME280;4985;49.092;8.542;2023-02-01T04:27:21;99886.84;;;11.89;54.63
9893;BME280;4985;49.092;8.542;2023-02-01T04:29:48;99889.22;;;11.92;54.64
9893;BME280;4985;49.092;8.542;2023-02-01T04:32:15;99868.91;;;11.92;54.64
9893;BME280;4985;49.092;8.542;2023-02-01T04:34:42;99880.31;;;11.93;54.63
9893;BME280;4985;49.092;8.542;2023-02-01T04:37:08;99875.84;;;11.93;54.65
9893;BME280;4985;49.092;8.542;2023-02-01T04:39:35;99863.47;;;11.94;54.64
9893;BME280;4985;49.092;8.542;2023-02-01T04:42:02;99862.81;;;11.92;54.64
9893;BME280;4985;49.092;8.542;2023-02-01T04:44:30;99853.91;;;11.93;54.63
9893;BME280;4985;49.092;8.542;2023-02-01T04:46:56;99838.09;;;11.93;54.62
9893;BME280;4985;49.092;8.542;2023-02-01T04:49:23;99845.00;;;11.94;54.61
9893;BME280;4985;49.092;8.542;2023-02-01T04:51:52;99858.53;;;11.91;54.61
9893;BME280;4985;49.092;8.542;2023-02-01T04:54:18;99882.94;;;11.93;54.61
9893;BME280;4985;49.092;8.542;2023-02-01T04:56:45;99882.94;;;11.93;54.62
9893;BME280;4985;49.092;8.542;2023-02-01T04:59:12;99891.69;;;11.93;54.62
9893;BME280;4985;49.092;8.542;2023-02-01T05:01:39;99895.31;;;11.92;54.63
9893;BME280;4985;49.092;8.542;2023-02-01T05:04:06;99895.31;;;11.92;54.63
9893;BME280;4985;49.092;8.542;2023-02-01T05:06:32;99893.34;;;11.94;54.63
9893;BME280;4985;49.092;8.542;2023-02-01T05:08:59;99887.22;;;11.94;54.63
9893;BME280;4985;49.092;8.542;2023-02-01T05:11:26;99881.94;;;11.94;54.60
9893;BME280;4985;49.092;8.542;2023-02-01T05:14:10;99875.69;;;11.95;54.59
9893;BME280;4985;49.092;8.542;2023-02-01T05:16:36;99853.59;;;11.96;54.58
9893;BME280;4985;49.092;8.542;2023-02-01T05:19:04;99851.13;;;11.94;54.58
9893;BME280;4985;49.092;8.542;2023-02-01T05:21:31;99849.31;;;11.95;54.57
9893;BME280;4985;49.092;8.542;2023-02-01T05:23:57;99855.56;;;11.94;54.58
9893;BME280;4985;49.092;8.542;2023-02-01T05:26:38;99853.59;;;11.96;54.57
9893;BME280;4985;49.092;8.542;2023-02-01T05:29:06;99865.13;;;11.95;54.57
9893;BME280;4985;49.092;8.542;2023-02-01T05:31:33;99870.41;;;11.95;54.57
9893;BME280;4985;49.092;8.542;2023-02-01T05:34:00;99869.41;;;11.96;54.58
9893;BME280;4985;49.092;8.542;2023-02-01T05:36:28;99862.50;;;11.95;54.60
9893;BME280;4985;49.092;8.542;2023-02-01T05:38:54;99850.28;;;11.94;54.61
9893;BME280;4985;49.092;8.542;2023-02-01T05:41:21;99863.47;;;11.94;54.61
9893;BME280;4985;49.092;8.542;2023-02-01T05:43:48;99875.69;;;11.95;54.61
9893;BME280;4985;49.092;8.542;2023-02-01T05:46:14;99876.69;;;11.94;54.63
9893;BME280;4985;49.092;8.542;2023-02-01T05:48:41;99885.56;;;11.93;54.64
9893;BME280;4985;49.092;8.542;2023-02-01T05:51:08;99885.56;;;11.93;54.63
9893;BME280;4985;49.092;8.542;2023-02-01T05:53:36;99887.22;;;11.94;54.63
9893;BME280;4985;49.092;8.542;2023-02-01T05:56:04;99881.94;;;11.94;54.62
9893;BME280;4985;49.092;8.542;2023-02-01T05:58:30;99876.69;;;11.94;54.63
9893;BME280;4985;49.092;8.542;2023-02-01T06:00:58;99883.94;;;11.92;54.62
9893;BME280;4985;49.092;8.542;2023-02-01T06:03:25;99875.84;;;11.93;54.64
9893;BME280;4985;49.092;8.542;2023-02-01T06:05:52;99876.69;;;11.94;54.63
9893;BME280;4985;49.092;8.542;2023-02-01T06:08:19;99881.94;;;11.94;54.64
9893;BME280;4985;49.092;8.542;2023-02-01T06:10:47;99881.94;;;11.94;54.63
9893;BME280;4985;49.092;8.542;2023-02-01T06:13:14;99887.22;;;11.94;54.62
9893;BME280;4985;49.092;8.542;2023-02-01T06:15:40;99884.59;;;11.94;54.61
9893;BME280;4985;49.092;8.542;2023-02-01T06:18:09;99879.31;;;11.94;54.62
9893;BME280;4985;49.092;8.542;2023-02-01T06:20:36;99873.22;;;11.93;54.62
9893;BME280;4985;49.092;8.542;2023-02-01T06:23:02;99879.31;;;11.94;54.63
9893;BME280;4985;49.092;8.542;2023-02-01T06:25:30;99878.50;;;11.93;54.63
9893;BME280;4985;49.092;8.542;2023-02-01T06:28:01;99869.75;;;11.93;54.62
9893;BME280;4985;49.092;8.542;2023-02-01T06:30:30;99880.13;;;11.94;54.61
9893;BME280;4985;49.092;8.542;2023-02-01T06:32:57;99878.31;;;11.95;54.61
9893;BME280;4985;49.092;8.542;2023-02-01T06:35:24;99886.25;;;11.95;54.59
9893;BME280;4985;49.092;8.542;2023-02-01T06:37:51;99881.78;;;11.95;54.59
9893;BME280;4985;49.092;8.542;2023-02-01T06:40:18;99888.06;;;11.94;54.59
9893;BME280;4985;49.092;8.542;2023-02-01T06:42:45;99894.16;;;11.95;54.61
9893;BME280;4985;49.092;8.542;2023-02-01T06:45:13;99894.16;;;11.95;54.58
9893;BME280;4985;49.092;8.542;2023-02-01T06:47:39;99895.97;;;11.94;54.59
9893;BME280;4985;49.092;8.542;2023-02-01T06:50:08;99894.16;;;11.95;54.59
9893;BME280;4985;49.092;8.542;2023-02-01T06:52:35;99899.44;;;11.95;54.58
9893;BME280;4985;49.092;8.542;2023-02-01T06:55:01;99896.78;;;11.95;54.58
9893;BME280;4985;49.092;8.542;2023-02-01T06:57:28;99894.97;;;11.95;54.58
9893;BME280;4985;49.092;8.542;2023-02-01T06:59:56;99920.53;;;11.95;54.59
9893;BME280;4985;49.092;8.542;2023-02-01T07:02:25;99917.91;;;11.95;54.61
9893;BME280;4985;49.092;8.542;2023-02-01T07:04:51;99920.53;;;11.95;54.60
9893;BME280;4985;49.092;8.542;2023-02-01T07:07:18;99925.81;;;11.95;54.60
9893;BME280;4985;49.092;8.542;2023-02-01T07:09:47;99904.72;;;11.95;54.60
9893;BME280;4985;49.092;8.542;2023-02-01T07:12:14;99906.69;;;11.93;54.61
9893;BME280;4985;49.092;8.542;2023-02-01T07:14:40;99905.69;;;11.94;54.62
9893;BME280;4985;49.092;8.542;2023-02-01T07:17:07;99897.78;;;11.94;54.62
9893;BME280;4985;49.092;8.542;2023-02-01T07:19:35;99908.34;;;11.94;54.60
9893;BME280;4985;49.092;8.542;2023-02-01T07:22:02;99904.72;;;11.95;54.59
9893;BME280;4985;49.092;8.542;2023-02-01T07:24:28;99916.91;;;11.96;54.59
9893;BME280;4985;49.092;8.542;2023-02-01T07:26:56;99919.88;;;11.93;54.60
9893;BME280;4985;49.092;8.542;2023-02-01T07:29:23;99925.81;;;11.95;54.61
9893;BME280;4985;49.092;8.542;2023-02-01T07:31:49;99927.63;;;11.94;54.60
9893;BME280;4985;49.092;8.542;2023-02-01T07:34:16;99926.81;;;11.94;54.62
9893;BME280;4985;49.092;8.542;2023-02-01T07:36:44;99933.91;;;11.93;54.64
9893;BME280;4985;49.092;8.542;2023-02-01T07:39:10;99931.09;;;11.95;54.62
9893;BME280;4985;49.092;8.542;2023-02-01T07:41:37;99941.66;;;11.95;54.62
9893;BME280;4985;49.092;8.542;2023-02-01T07:44:04;99933.75;;;11.95;54.62
9893;BME280;4985;49.092;8.542;2023-02-01T07:46:30;99924.00;;;11.95;54.61
9893;BME280;4985;49.092;8.542;2023-02-01T07:48:57;99928.28;;;11.97;54.59
9893;BME280;4985;49.092;8.542;2023-02-01T07:51:24;99923.03;;;11.97;54.59
9893;BME280;4985;49.092;8.542;2023-02-01T07:53:51;99906.69;;;11.93;54.58
9893;BME280;4985;49.092;8.542;2023-02-01T07:56:20;99908.19;;;11.95;54.59
9893;BME280;4985;49.092;8.542;2023-02-01T07:58:48;99925.66;;;11.97;54.59
9893;BME280;4985;49.092;8.542;2023-02-01T08:01:15;99927.47;;;11.96;54.58
9893;BME280;4985;49.092;8.542;2023-02-01T08:03:48;99930.94;;;11.97;54.57
9893;BME280;4985;49.092;8.542;2023-02-01T08:06:15;99935.38;;;11.96;54.59
9893;BME280;4985;49.092;8.542;2023-02-01T08:08:41;99935.38;;;11.96;54.59
9893;BME280;4985;49.092;8.542;2023-02-01T08:11:11;99932.75;;;11.96;54.60
9893;BME280;4985;49.092;8.542;2023-02-01T08:13:38;99923.03;;;11.97;54.60
9893;BME280;4985;49.092;8.542;2023-02-01T08:16:06;99927.47;;;11.96;54.60
9893;BME280;4985;49.092;8.542;2023-02-01T08:18:34;99930.13;;;11.96;54.60
9893;BME280;4985;49.092;8.542;2023-02-01T08:21:03;99942.47;;;11.95;54.61
9893;BME280;4985;49.092;8.542;2023-02-01T08:23:30;99953.03;;;11.95;54.63
9893;BME280;4985;49.092;8.542;2023-02-01T08:26:08;99966.22;;;11.95;54.64
9893;BME280;4985;49.092;8.542;2023-02-01T08:28:36;99960.94;;;11.95;54.65
9893;BME280;4985;49.092;8.542;2023-02-01T08:31:07;99959.12;;;11.96;54.67
9893;BME280;4985;49.092;8.542;2023-02-01T08:33:34;99958.31;;;11.95;54.67
9893;BME280;4985;49.092;8.542;2023-02-01T08:36:03;99956.50;;;11.96;54.64
9893;BME280;4985;49.092;8.542;2023-02-01T08:38:30;99959.12;;;11.96;54.65
9893;BME280;4985;49.092;8.542;2023-02-01T08:40:57;99961.78;;;11.96;54.67
9893;BME280;4985;49.092;8.542;2023-02-01T08:43:24;99959.12;;;11.96;54.69
9893;BME280;4985;49.092;8.542;2023-02-01T08:45:53;99963.91;;;11.92;54.67
9893;BME280;4985;49.092;8.542;2023-02-01T08:48:20;99974.12;;;11.95;54.69
9893;BME280;4985;49.092;8.542;2023-02-01T08:50:47;99970.50;;;11.97;54.67
9893;BME280;4985;49.092;8.542;2023-02-01T08:53:13;99967.72;;;11.98;54.65
9893;BME280;4985;49.092;8.542;2023-02-01T08:55:40;99965.25;;;11.97;54.67
9893;BME280;4985;49.092;8.542;2023-02-01T08:58:07;99966.88;;;11.98;54.68
9893;BME280;4985;49.092;8.542;2023-02-01T09:00:33;99956.50;;;11.96;54.68
9893;BME280;4985;49.092;8.542;2023-02-01T09:03:01;99961.63;;;11.98;54.67
9893;BME280;4985;49.092;8.542;2023-02-01T09:05:28;99966.06;;;11.97;54.67
9893;BME280;4985;49.092;8.542;2023-02-01T09:07:54;99968.69;;;11.97;54.69
9893;BME280;4985;49.092;8.542;2023-02-01T09:10:21;99949.41;;;11.97;54.70
9893;BME280;4985;49.092;8.542;2023-02-01T09:12:48;99953.03;;;11.95;54.70
9893;BME280;4985;49.092;8.542;2023-02-01T09:15:14;99946.59;;;11.98;54.68
9893;BME280;4985;49.092;8.542;2023-02-01T09:17:41;99948.59;;;11.96;54.69
9893;BME280;4985;49.092;8.542;2023-02-01T09:20:11;99945.94;;;11.96;54.70
9893;BME280;4985;49.092;8.542;2023-02-01T09:22:38;99943.31;;;11.96;54.74
9893;BME280;4985;49.092;8.542;2023-02-01T09:25:06;99941.66;;;11.95;54.75
9893;BME280;4985;49.092;8.542;2023-02-01T09:27:33;99940.00;;;11.94;54.75
9893;BME280;4985;49.092;8.542;2023-02-01T09:29:59;99942.47;;;11.95;54.76
9893;BME280;4985;49.092;8.542;2023-02-01T09:32:26;99937.19;;;11.95;54.77
9893;BME280;4985;49.092;8.542;2023-02-01T09:34:53;99937.34;;;11.94;54.74
9893;BME280;4985;49.092;8.542;2023-02-01T09:37:20;99944.97;;;11.97;54.76
9893;BME280;4985;49.092;8.542;2023-02-01T09:39:47;99942.16;;;11.99;54.74
9893;BME280;4985;49.092;8.542;2023-02-01T09:42:29;99931.75;;;11.97;54.76
9893;BME280;4985;49.092;8.542;2023-02-01T09:45:13;99950.22;;;11.97;54.78
9893;BME280;4985;49.092;8.542;2023-02-01T09:47:46;99959.97;;;11.97;54.79
9893;BME280;4985;49.092;8.542;2023-02-01T09:50:17;99952.03;;;11.97;54.79
9893;BME280;4985;49.092;8.542;2023-02-01T09:52:50;99946.94;;;11.95;54.76
9893;BME280;4985;49.092;8.542;2023-02-01T09:55:23;99966.72;;;11.99;54.76
9893;BME280;4985;49.092;8.542;2023-02-01T09:57:53;99970.19;;;12.00;54.74
9893;BME280;4985;49.092;8.542;2023-02-01T10:00:25;99978.13;;;12.00;54.75
9893;BME280;4985;49.092;8.542;2023-02-01T10:02:54;99986.03;;;12.00;54.75
9893;BME280;4985;49.092;8.542;2023-02-01T10:05:33;99995.75;;;11.99;54.75
9893;BME280;4985;49.092;8.542;2023-02-01T10:08:14;99992.13;;;12.00;54.74
9893;BME280;4985;49.092;8.542;2023-02-01T10:10:45;100015.88;;;12.00;54.74
9893;BME280;4985;49.092;8.542;2023-02-01T10:13:25;100010.59;;;12.00;54.75
9893;BME280;4985;49.092;8.542;2023-02-01T10:16:16;100008.94;;;11.99;54.75
9893;BME280;4985;49.092;8.542;2023-02-01T10:21:50;100027.41;;;11.99;54.80
9893;BME280;4985;49.092;8.542;2023-02-01T10:24:28;100031.72;;;12.00;54.80
9893;BME280;4985;49.092;8.542;2023-02-01T10:27:01;100031.03;;;11.98;54.81
9893;BME280;4985;49.092;8.542;2023-02-01T10:29:34;100030.75;;;12.01;54.80
9893;BME280;4985;49.092;8.542;2023-02-01T10:32:03;100033.41;;;12.01;54.80
9893;BME280;4985;49.092;8.542;2023-02-01T10:34:36;100037.69;;;12.02;54.80
9893;BME280;4985;49.092;8.542;2023-02-01T10:37:13;100040.34;;;12.02;54.81
9893;BME280;4985;49.092;8.542;2023-02-01T10:39:46;100044.63;;;12.03;54.79
9893;BME280;4985;49.092;8.542;2023-02-01T10:42:14;100035.72;;;12.04;54.79
9893;BME280;4985;49.092;8.542;2023-02-01T10:44:43;100048.91;;;12.04;54.79
9893;BME280;4985;49.092;8.542;2023-02-01T10:47:14;100030.44;;;12.04;54.80
9893;BME280;4985;49.092;8.542;2023-02-01T10:49:44;100026.81;;;12.05;54.80
9893;BME280;4985;49.092;8.542;2023-02-01T10:52:15;100033.91;;;12.05;54.82
9893;BME280;4985;49.092;8.542;2023-02-01T10:54:43;100026.81;;;12.05;54.83
9893;BME280;4985;49.092;8.542;2023-02-01T10:57:21;100017.09;;;12.06;54.81
9893;BME280;4985;49.092;8.542;2023-02-01T10:59:48;100023.19;;;12.06;54.83
9893;BME280;4985;49.092;8.542;2023-02-01T11:02:20;100025.00;;;12.06;54.83
9893;BME280;4985;49.092;8.542;2023-02-01T11:04:58;100020.72;;;12.05;54.83
9893;BME280;4985;49.092;8.542;2023-02-01T11:07:25;100017.09;;;12.06;54.83
9893;BME280;4985;49.092;8.542;2023-02-01T11:09:54;100017.09;;;12.06;54.83
9893;BME280;4985;49.092;8.542;2023-02-01T11:12:29;100004.72;;;12.06;54.85
9893;BME280;4985;49.092;8.542;2023-02-01T11:14:59;100009.84;;;12.08;54.83
9893;BME280;4985;49.092;8.542;2023-02-01T11:17:33;100001.94;;;12.08;54.84
9893;BME280;4985;49.092;8.542;2023-02-01T11:20:01;99997.12;;;12.03;54.84
9893;BME280;4985;49.092;8.542;2023-02-01T11:22:29;99997.47;;;12.08;54.83
9893;BME280;4985;49.092;8.542;2023-02-01T11:24:56;99987.91;;;12.07;54.81
9893;BME280;4985;49.092;8.542;2023-02-01T11:27:24;99982.31;;;12.10;54.80
9893;BME280;4985;49.092;8.542;2023-02-01T11:29:56;99966.62;;;12.09;54.83
9893;BME280;4985;49.092;8.542;2023-02-01T11:32:26;99957.06;;;12.08;54.84
9893;BME280;4985;49.092;8.542;2023-02-01T11:34:56;99961.19;;;12.10;54.82
9893;BME280;4985;49.092;8.542;2023-02-01T11:37:26;99948.81;;;12.11;54.82
9893;BME280;4985;49.092;8.542;2023-02-01T11:39:55;99961.06;;;12.12;54.80
9893;BME280;4985;49.092;8.542;2023-02-01T11:42:22;99953.16;;;12.12;54.79
9893;BME280;4985;49.092;8.542;2023-02-01T11:44:49;99944.25;;;12.13;54.78
9893;BME280;4985;49.092;8.542;2023-02-01T11:47:25;99955.63;;;12.13;54.77
9893;BME280;4985;49.092;8.542;2023-02-01T11:49:54;99945.06;;;12.13;54.77
9893;BME280;4985;49.092;8.542;2023-02-01T11:52:43;99939.78;;;12.13;54.77
9893;BME280;4985;49.092;8.542;2023-02-01T11:55:29;99937.31;;;12.12;54.79
9893;BME280;4985;49.092;8.542;2023-02-01T11:58:10;99936.31;;;12.13;54.79
9893;BME280;4985;49.092;8.542;2023-02-01T12:00:54;99939.78;;;12.13;54.80
9893;BME280;4985;49.092;8.542;2023-02-01T12:03:52;99942.44;;;12.13;54.80
9893;BME280;4985;49.092;8.542;2023-02-01T12:06:30;99934.50;;;12.13;54.81
9893;BME280;4985;49.092;8.542;2023-02-01T12:09:13;99930.88;;;12.14;54.80
9893;BME280;4985;49.092;8.542;2023-02-01T12:11:51;99934.34;;;12.15;54.78
9893;BME280;4985;49.092;8.542;2023-02-01T12:14:34;99941.44;;;12.14;54.80
9893;BME280;4985;49.092;8.542;2023-02-01T12:17:24;99927.25;;;12.15;54.80
9893;BME280;4985;49.092;8.542;2023-02-01T12:20:09;99939.63;;;12.15;54.79
9893;BME280;4985;49.092;8.542;2023-02-01T12:22:48;99936.97;;;12.15;54.82
9893;BME280;4985;49.092;8.542;2023-02-01T12:25:24;99944.91;;;12.15;54.82
9893;BME280;4985;49.092;8.542;2023-02-01T12:28:21;99939.78;;;12.13;54.82
9893;BME280;4985;49.092;8.542;2023-02-01T12:34:07;99945.88;;;12.14;54.86
9893;BME280;4985;49.092;8.542;2023-02-01T12:36:46;99935.62;;;12.11;54.86
9893;BME280;4985;49.092;8.542;2023-02-01T12:39:22;99934.34;;;12.15;54.85
9893;BME280;4985;49.092;8.542;2023-02-01T12:41:53;99937.81;;;12.15;54.86
9893;BME280;4985;49.092;8.542;2023-02-01T12:44:31;99948.37;;;12.15;54.85
9893;BME280;4985;49.092;8.542;2023-02-01T12:47:02;99931.72;;;12.15;54.85
9893;BME280;4985;49.092;8.542;2023-02-01T12:49:37;99929.72;;;12.17;54.85
9893;BME280;4985;49.092;8.542;2023-02-01T12:52:14;99936.66;;;12.18;54.84
9893;BME280;4985;49.092;8.542;2023-02-01T12:54:47;99936.00;;;12.16;54.83
9893;BME280;4985;49.092;8.542;2023-02-01T12:57:17;99937.50;;;12.18;54.83
9893;BME280;4985;49.092;8.542;2023-02-01T12:59:52;99933.03;;;12.19;54.80
9893;BME280;4985;49.092;8.542;2023-02-01T13:02:25;99923.47;;;12.18;54.81
9893;BME280;4985;49.092;8.542;2023-02-01T13:04:59;99918.03;;;12.19;54.80
9893;BME280;4985;49.092;8.542;2023-02-01T13:07:33;99917.19;;;12.19;54.81
9893;BME280;4985;49.092;8.542;2023-02-01T13:10:07;99903.84;;;12.20;54.80
9893;BME280;4985;49.092;8.542;2023-02-01T13:12:43;99899.72;;;12.18;54.80
9893;BME280;4985;49.092;8.542;2023-02-01T13:15:13;99906.47;;;12.20;54.79
9893;BME280;4985;49.092;8.542;2023-02-01T13:17:43;99884.38;;;12.21;54.76
9893;BME280;4985;49.092;8.542;2023-02-01T13:20:19;99894.94;;;12.21;54.76
9893;BME280;4985;49.092;8.542;2023-02-01T13:22:52;99896.59;;;12.22;54.76
9893;BME280;4985;49.092;8.542;2023-02-01T13:25:28;99894.94;;;12.21;54.76
9893;BME280;4985;49.092;8.542;2023-02-01T13:28:02;99897.41;;;12.23;54.74
9893;BME280;4985;49.092;8.542;2023-02-01T13:30:37;99888.00;;;12.20;54.73
9893;BME280;4985;49.092;8.542;2023-02-01T13:33:17;99887.72;;;12.23;54.73
9893;BME280;4985;49.092;8.542;2023-02-01T13:35:57;99883.25;;;12.24;54.73
9893;BME280;4985;49.092;8.542;2023-02-01T13:41:27;99877.97;;;12.24;54.72
9893;BME280;4985;49.092;8.542;2023-02-01T13:43:57;99876.00;;;12.26;54.74
9893;BME280;4985;49.092;8.542;2023-02-01T13:46:25;99866.06;;;12.20;54.75
9893;BME280;4985;49.092;8.542;2023-02-01T13:48:55;99868.25;;;12.24;54.75
9893;BME280;4985;49.092;8.542;2023-02-01T13:51:34;99868.25;;;12.24;54.75
9893;BME280;4985;49.092;8.542;2023-02-01T13:54:03;99878.63;;;12.26;54.75